Time;durP1;ratioP1;P1;durP2;ratioP2;P2;SDS_P1;SDS_P2;PMS_P1;PMS_P2;Temp;Humidity;BMP_temperature;BMP_pressure;BME280_temperature;BME280_humidity;BME280_pressure;Samples;Min_cycle;Max_cycle;Signal;HPM_P1;HPM_P2
2023/07/30 00:01:33;;;;;;;9.43;4.75;;;28.60;45.30;;;;;;4990270;28;20030;-69
2023/07/30 00:03:59;;;;;;;6.95;3.75;;;28.70;45.30;;;;;;4991520;28;20065;-69
2023/07/30 00:06:25;;;;;;;8.38;4.50;;;28.50;45.40;;;;;;4990779;28;20037;-69
2023/07/30 00:08:51;;;;;;;9.35;4.18;;;28.60;45.50;;;;;;4990289;28;20039;-69
2023/07/30 00:11:17;;;;;;;7.55;4.32;;;28.60;45.50;;;;;;4990779;28;20045;-69
2023/07/30 00:13:43;;;;;;;6.13;4.40;;;28.50;45.60;;;;;;4990645;28;20037;-69
2023/07/30 00:16:09;;;;;;;5.97;4.30;;;28.50;45.60;;;;;;4989735;28;20651;-69
2023/07/30 00:18:35;;;;;;;8.18;4.07;;;28.40;45.70;;;;;;4989806;28;20036;-69
2023/07/30 00:21:01;;;;;;;5.65;4.65;;;28.40;45.70;;;;;;4990735;28;20022;-69
2023/07/30 00:23:27;;;;;;;6.50;4.22;;;28.40;45.80;;;;;;4987704;28;20039;-69
2023/07/30 00:25:54;;;;;;;6.45;4.15;;;28.50;45.80;;;;;;4989421;28;20065;-69
2023/07/30 00:28:20;;;;;;;7.45;3.97;;;28.40;45.90;;;;;;4991691;28;20117;-69
2023/07/30 00:30:46;;;;;;;6.03;3.88;;;28.50;45.90;;;;;;5002274;28;20045;-69
2023/07/30 00:33:12;;;;;;;9.82;4.40;;;28.40;46.00;;;;;;4986830;28;20060;-69
2023/07/30 00:35:39;;;;;;;6.95;4.65;;;28.50;46.10;;;;;;4972567;28;20033;-69
2023/07/30 00:38:05;;;;;;;8.32;4.35;;;28.50;46.20;;;;;;4991438;28;20053;-69
2023/07/30 00:40:31;;;;;;;9.20;4.35;;;28.50;46.20;;;;;;5001600;28;20039;-69
2023/07/30 00:42:57;;;;;;;6.70;4.57;;;28.50;46.30;;;;;;4987650;28;20030;-69
2023/07/30 00:45:23;;;;;;;8.75;4.55;;;28.60;46.30;;;;;;4990374;28;20046;-69
2023/07/30 00:47:49;;;;;;;5.93;4.18;;;28.50;46.30;;;;;;4995938;28;20038;-69
2023/07/30 00:50:18;;;;;;;7.10;4.00;;;28.50;46.40;;;;;;4970586;28;20102;-69
2023/07/30 00:52:44;;;;;;;5.70;4.32;;;28.50;46.40;;;;;;4981590;28;20038;-69
2023/07/30 00:55:11;;;;;;;5.57;3.95;;;28.40;46.50;;;;;;4991097;28;20045;-69
2023/07/30 00:57:39;;;;;;;7.78;4.28;;;28.50;46.50;;;;;;4992870;28;20057;-69
2023/07/30 01:00:08;;;;;;;4.38;3.55;;;28.50;46.60;;;;;;5009052;28;20109;-69
2023/07/30 01:02:36;;;;;;;7.72;4.60;;;28.50;46.60;;;;;;4992330;28;20437;-68
2023/07/30 01:05:05;;;;;;;6.90;4.35;;;28.50;46.60;;;;;;4994594;28;20038;-69
2023/07/30 01:07:32;;;;;;;4.22;3.08;;;28.40;46.60;;;;;;4992303;28;20030;-69
2023/07/30 01:10:00;;;;;;;5.07;3.97;;;28.40;46.60;;;;;;4994173;28;20085;-69
2023/07/30 01:12:28;;;;;;;5.43;4.30;;;28.50;46.60;;;;;;4993904;28;20038;-69
2023/07/30 01:14:56;;;;;;;5.68;4.10;;;28.40;46.70;;;;;;4993467;28;20030;-69
2023/07/30 01:17:23;;;;;;;10.30;4.43;;;28.50;46.70;;;;;;5004831;28;20042;-69
2023/07/30 01:19:54;;;;;;;6.20;4.55;;;28.40;46.70;;;;;;4993380;28;20034;-69
2023/07/30 01:22:22;;;;;;;9.70;4.25;;;28.30;46.70;;;;;;4993752;28;20478;-69
2023/07/30 01:24:49;;;;;;;5.70;4.20;;;28.40;46.80;;;;;;5003881;28;20419;-69
2023/07/30 01:27:37;;;;;;;6.50;4.40;;;28.30;46.80;;;;;;4988562;28;20046;-69
2023/07/30 01:30:27;;;;;;;10.43;4.35;;;28.30;46.90;;;;;;4993539;28;20426;-69
2023/07/30 01:32:55;;;;;;;8.85;4.57;;;28.40;47.00;;;;;;4993525;28;20065;-69
2023/07/30 01:35:28;;;;;;;8.23;4.45;;;28.30;47.00;;;;;;4993675;28;20050;-69
2023/07/30 01:37:55;;;;;;;5.28;3.78;;;28.30;47.10;;;;;;4992473;28;20070;-69
2023/07/30 01:40:21;;;;;;;7.97;4.40;;;28.40;47.20;;;;;;4992187;28;20038;-69
2023/07/30 01:42:49;;;;;;;5.40;3.55;;;28.30;47.20;;;;;;5008839;28;20050;-68
2023/07/30 01:45:16;;;;;;;6.28;4.03;;;28.40;47.30;;;;;;4992648;28;20097;-69
2023/07/30 01:47:43;;;;;;;5.15;4.30;;;28.20;47.30;;;;;;4992345;28;20429;-69
2023/07/30 01:50:09;;;;;;;6.50;4.07;;;28.40;47.40;;;;;;4992953;28;20026;-69
2023/07/30 01:52:39;;;;;;;6.43;3.90;;;28.30;47.40;;;;;;5007785;28;20033;-69
2023/07/30 01:55:06;;;;;;;6.72;4.45;;;28.40;47.50;;;;;;5008498;28;20042;-69
2023/07/30 01:57:32;;;;;;;8.10;3.97;;;28.30;47.50;;;;;;5005795;28;20582;-69
2023/07/30 01:59:59;;;;;;;10.70;4.85;;;28.40;47.60;;;;;;4975586;28;20048;-69
2023/07/30 02:02:26;;;;;;;6.85;4.05;;;28.30;47.60;;;;;;4990595;28;20484;-69
2023/07/30 02:04:52;;;;;;;8.27;4.53;;;28.30;47.70;;;;;;4994685;28;20053;-69
2023/07/30 02:07:18;;;;;;;6.32;4.47;;;28.30;47.70;;;;;;4991994;28;20053;-69
2023/07/30 02:09:47;;;;;;;7.00;5.13;;;28.40;47.70;;;;;;4992702;28;20034;-69
2023/07/30 02:12:13;;;;;;;5.75;4.78;;;28.40;47.70;;;;;;5008571;28;20069;-69
2023/07/30 02:14:39;;;;;;;6.03;4.18;;;28.40;47.70;;;;;;4991020;28;20042;-69
2023/07/30 02:17:05;;;;;;;7.88;4.45;;;28.30;47.70;;;;;;4992534;28;20162;-69
2023/07/30 02:19:31;;;;;;;5.82;4.75;;;28.40;47.70;;;;;;4991757;28;20117;-69
2023/07/30 02:21:58;;;;;;;7.70;4.05;;;28.20;47.70;;;;;;4993133;28;20030;-69
2023/07/30 02:24:24;;;;;;;8.90;4.38;;;28.30;47.70;;;;;;4993054;28;20049;-69
2023/07/30 02:26:50;;;;;;;10.43;4.65;;;28.30;47.70;;;;;;4992151;28;20034;-68
2023/07/30 02:29:17;;;;;;;6.50;4.07;;;28.40;47.70;;;;;;4992026;28;20113;-69
2023/07/30 02:31:43;;;;;;;6.10;4.82;;;28.20;47.70;;;;;;4992902;28;20035;-69
2023/07/30 02:34:09;;;;;;;6.13;4.18;;;28.10;47.80;;;;;;4992169;28;20034;-68
2023/07/30 02:36:36;;;;;;;5.97;4.50;;;28.30;47.80;;;;;;4991839;28;20440;-69
2023/07/30 02:39:02;;;;;;;6.28;4.20;;;28.30;47.90;;;;;;5004634;28;20089;-69
2023/07/30 02:41:32;;;;;;;10.27;4.45;;;28.10;48.00;;;;;;5007156;28;20078;-69
2023/07/30 02:43:58;;;;;;;6.28;4.38;;;28.20;48.10;;;;;;4991716;28;20032;-69
2023/07/30 02:46:24;;;;;;;7.75;4.13;;;28.20;48.20;;;;;;4991987;28;20374;-69
2023/07/30 02:48:51;;;;;;;6.13;4.65;;;28.20;48.20;;;;;;4988492;28;20026;-69
2023/07/30 02:51:17;;;;;;;6.40;3.80;;;28.20;48.30;;;;;;4992163;28;20045;-69
2023/07/30 02:53:44;;;;;;;7.95;4.70;;;28.40;48.30;;;;;;4992781;28;20386;-69
2023/07/30 02:56:10;;;;;;;11.27;4.95;;;28.20;48.30;;;;;;5006676;28;20041;-69
2023/07/30 02:58:36;;;;;;;5.88;3.83;;;28.20;48.40;;;;;;5006681;28;20088;-69
2023/07/30 03:01:09;;;;;;;5.40;4.30;;;28.20;48.40;;;;;;4990867;28;20081;-69
2023/07/30 03:03:35;;;;;;;;;;;28.20;48.50;;;;;;4990395;28;20034;-69
2023/07/30 03:06:01;;;;;;;9.07;4.70;;;28.20;48.40;;;;;;4991953;28;20439;-69
2023/07/30 03:08:27;;;;;;;8.27;4.10;;;28.10;48.50;;;;;;4990914;28;20034;-68
2023/07/30 03:10:53;;;;;;;9.05;4.13;;;28.20;48.50;;;;;;4992538;28;20096;-69
2023/07/30 03:13:21;;;;;;;8.27;4.25;;;28.20;48.60;;;;;;4991902;28;20060;-69
2023/07/30 03:15:47;;;;;;;8.38;4.28;;;28.20;48.60;;;;;;4989204;28;20061;-69
2023/07/30 03:18:13;;;;;;;6.78;4.57;;;28.30;48.60;;;;;;4989441;28;20042;-69
2023/07/30 03:20:40;;;;;;;6.05;4.25;;;28.10;48.60;;;;;;4990936;28;20041;-69
2023/07/30 03:23:06;;;;;;;6.70;3.95;;;28.20;48.60;;;;;;4991128;28;20034;-69
2023/07/30 03:25:32;;;;;;;5.85;4.25;;;28.20;48.60;;;;;;4991099;28;20382;-69
2023/07/30 03:27:58;;;;;;;9.80;4.43;;;28.10;48.60;;;;;;4991298;28;20482;-69
2023/07/30 03:30:24;;;;;;;7.47;4.80;;;28.20;48.60;;;;;;4991483;28;20043;-69
2023/07/30 03:32:51;;;;;;;5.72;4.10;;;28.30;48.60;;;;;;4991852;28;20052;-69
2023/07/30 03:35:17;;;;;;;8.13;4.78;;;28.10;48.70;;;;;;5007136;28;20057;-69
2023/07/30 03:37:43;;;;;;;7.97;4.68;;;28.10;48.70;;;;;;5008240;28;20050;-68
2023/07/30 03:40:09;;;;;;;6.57;4.47;;;28.10;48.70;;;;;;5008448;28;20049;-69
2023/07/30 03:42:35;;;;;;;5.68;4.13;;;28.10;48.70;;;;;;4992004;28;20061;-69
2023/07/30 03:45:01;;;;;;;7.80;3.97;;;28.00;48.70;;;;;;4989390;28;20121;-69
2023/07/30 03:47:29;;;;;;;7.68;4.60;;;28.10;48.70;;;;;;5007866;28;20038;-69
2023/07/30 03:49:56;;;;;;;8.60;4.50;;;28.10;48.70;;;;;;4991432;28;20038;-69
2023/07/30 03:52:22;;;;;;;6.15;4.35;;;28.00;48.80;;;;;;4991295;28;20034;-69
2023/07/30 03:54:48;;;;;;;10.02;4.43;;;28.10;48.80;;;;;;5007939;28;20046;-69
2023/07/30 03:57:14;;;;;;;5.40;4.30;;;28.10;48.80;;;;;;4991651;28;20076;-69
2023/07/30 03:59:41;;;;;;;11.75;4.53;;;28.10;48.90;;;;;;5007078;28;20030;-69
2023/07/30 04:02:07;;;;;;;7.50;4.55;;;28.10;48.90;;;;;;4976601;28;20057;-69
2023/07/30 04:04:33;;;;;;;6.30;4.72;;;28.00;48.90;;;;;;4980381;28;20038;-69
2023/07/30 04:07:00;;;;;;;11.43;5.18;;;28.00;48.90;;;;;;4993174;28;20177;-69
2023/07/30 04:09:26;;;;;;;8.40;5.10;;;28.00;49.00;;;;;;5008478;28;20215;-69
2023/07/30 04:11:52;;;;;;;7.88;4.70;;;28.00;49.20;;;;;;4992360;28;20041;-69
2023/07/30 04:14:18;;;;;;;6.53;4.40;;;27.90;48.70;;;;;;5007871;28;20521;-69
2023/07/30 04:16:46;;;;;;;9.80;4.72;;;28.00;49.30;;;;;;5006862;28;20133;-69
2023/07/30 04:19:13;;;;;;;5.07;3.97;;;27.90;48.80;;;;;;5006863;28;20046;-69
2023/07/30 04:21:40;;;;;;;7.00;4.15;;;28.00;49.40;;;;;;4990718;28;20400;-69
2023/07/30 04:24:06;;;;;;;6.47;3.92;;;28.10;49.50;;;;;;4991681;28;20151;-69
2023/07/30 04:26:34;;;;;;;6.13;4.45;;;28.10;49.50;;;;;;5008340;28;20050;-69
2023/07/30 04:29:00;;;;;;;7.30;4.50;;;28.00;49.50;;;;;;4991758;28;20053;-69
2023/07/30 04:31:26;;;;;;;6.70;4.75;;;28.10;49.50;;;;;;5009201;28;20068;-69
2023/07/30 04:33:52;;;;;;;7.68;4.18;;;28.00;49.60;;;;;;4994560;28;20140;-69
2023/07/30 04:36:19;;;;;;;8.93;4.40;;;28.10;49.60;;;;;;4990001;28;20612;-69
2023/07/30 04:38:47;;;;;;;8.70;4.13;;;28.20;49.60;;;;;;5007415;28;20691;-69
2023/07/30 04:41:14;;;;;;;8.90;4.25;;;28.10;49.60;;;;;;4993215;28;20050;-69
2023/07/30 04:43:45;;;;;;;11.25;5.28;;;28.10;49.70;;;;;;4992211;28;20038;-69
2023/07/30 04:46:12;;;;;;;4.75;4.00;;;28.20;49.70;;;;;;4993558;28;20568;-69
2023/07/30 04:48:40;;;;;;;5.55;4.05;;;28.20;49.70;;;;;;4991111;28;20034;-69
2023/07/30 04:51:08;;;;;;;7.95;4.22;;;28.20;49.70;;;;;;4992677;28;20030;-69
2023/07/30 04:53:34;;;;;;;9.60;3.88;;;28.30;49.70;;;;;;5005978;28;20030;-69
2023/07/30 04:56:00;;;;;;;6.30;3.97;;;28.20;49.70;;;;;;4995746;28;20034;-69
2023/07/30 04:58:27;;;;;;;6.32;3.85;;;28.30;49.70;;;;;;5008249;28;20146;-69
2023/07/30 05:00:54;;;;;;;5.07;3.83;;;28.40;49.70;;;;;;5030259;28;20091;-69
2023/07/30 05:03:20;;;;;;;4.47;3.72;;;28.20;49.70;;;;;;5029890;28;20049;-69
2023/07/30 05:05:46;;;;;;;5.10;4.03;;;28.30;49.70;;;;;;5031272;28;20045;-69
2023/07/30 05:08:12;;;;;;;3.92;3.33;;;28.40;49.70;;;;;;5031867;28;20489;-69
2023/07/30 05:10:38;;;;;;;4.68;3.95;;;28.30;49.70;;;;;;5029671;28;20091;-69
2023/07/30 05:13:05;;;;;;;9.00;3.75;;;28.30;49.70;;;;;;5031534;28;20040;-69
2023/07/30 05:15:31;;;;;;;7.90;4.28;;;28.30;49.70;;;;;;5031088;28;20475;-69
2023/07/30 05:17:57;;;;;;;7.55;4.47;;;28.30;49.70;;;;;;5031493;28;20063;-69
2023/07/30 05:20:23;;;;;;;7.80;4.03;;;28.30;49.70;;;;;;5029808;28;20049;-69
2023/07/30 05:22:49;;;;;;;6.68;4.45;;;28.30;49.70;;;;;;5030526;28;20049;-69
2023/07/30 05:25:15;;;;;;;6.95;4.18;;;28.50;49.70;;;;;;4970895;28;20055;-69
2023/07/30 05:27:42;;;;;;;6.03;4.25;;;28.40;49.70;;;;;;4975277;28;20085;-69
2023/07/30 05:30:08;;;;;;;11.43;4.55;;;28.30;49.70;;;;;;4972038;28;20077;-69
2023/07/30 05:32:34;;;;;;;5.88;4.53;;;28.40;49.70;;;;;;4942200;28;20080;-69
2023/07/30 05:35:01;;;;;;;2.92;2.72;;;28.40;49.70;;;;;;4948656;28;20043;-69
2023/07/30 05:37:28;;;;;;;5.78;3.63;;;28.40;49.70;;;;;;4951357;28;20046;-69
2023/07/30 05:39:54;;;;;;;5.07;4.00;;;28.40;49.70;;;;;;4952028;28;20051;-69
2023/07/30 05:42:20;;;;;;;3.22;2.92;;;28.40;49.70;;;;;;4952374;28;20487;-69
2023/07/30 05:44:46;;;;;;;2.92;2.10;;;28.40;49.70;;;;;;4950040;28;20051;-69
2023/07/30 05:47:12;;;;;;;2.63;1.80;;;28.50;49.70;;;;;;4951368;28;20126;-69
2023/07/30 05:49:39;;;;;;;2.42;2.08;;;28.50;49.70;;;;;;4951549;28;20031;-69
2023/07/30 05:52:05;;;;;;;2.22;1.95;;;28.40;49.70;;;;;;4967122;28;20119;-69
2023/07/30 05:54:31;;;;;;;3.78;3.25;;;28.40;49.70;;;;;;4951789;29;20087;-68
2023/07/30 05:56:58;;;;;;;4.93;3.33;;;28.50;49.70;;;;;;4999152;28;20038;-68
2023/07/30 05:59:24;;;;;;;4.13;3.15;;;28.50;49.70;;;;;;5004510;28;20038;-69
2023/07/30 06:01:50;;;;;;;3.88;2.90;;;28.40;49.60;;;;;;4991434;28;20046;-69
2023/07/30 06:04:16;;;;;;;3.83;2.92;;;28.40;49.70;;;;;;4992609;28;20080;-69
2023/07/30 06:06:51;;;;;;;4.00;3.22;;;28.40;49.70;;;;;;4993560;28;20525;-69
2023/07/30 06:09:17;;;;;;;3.25;2.60;;;28.30;49.70;;;;;;4991015;28;20061;-71
2023/07/30 06:11:44;;;;;;;5.65;2.88;;;28.40;49.70;;;;;;4986481;28;20057;-71
2023/07/30 06:14:10;;;;;;;3.95;1.70;;;28.30;49.50;;;;;;4993417;28;20467;-74
2023/07/30 06:16:36;;;;;;;3.10;2.75;;;28.50;51.10;;;;;;4991698;28;20383;-74
2023/07/30 06:19:02;;;;;;;3.25;2.17;;;28.50;51.20;;;;;;4992114;28;20030;-74
2023/07/30 06:21:32;;;;;;;3.13;2.53;;;28.70;51.00;;;;;;4993053;28;20057;-73
2023/07/30 06:23:58;;;;;;;6.40;2.30;;;28.80;50.40;;;;;;4991554;28;20121;-76
2023/07/30 06:26:34;;;;;;;;;;;;;;;;;;;;;
2023/07/30 06:29:02;;;;;;;4.60;2.50;;;28.90;50.50;;;;;;4993469;28;20085;-77
2023/07/30 06:31:28;;;;;;;3.53;2.70;;;28.90;50.00;;;;;;4991234;28;20088;-74
2023/07/30 06:33:54;;;;;;;4.32;2.85;;;28.90;49.40;;;;;;4991382;28;20046;-77
2023/07/30 06:36:27;;;;;;;6.85;2.60;;;29.00;52.00;;;;;;4990831;28;20844;-76
2023/07/30 06:39:02;;;;;;;3.95;2.80;;;28.90;50.70;;;;;;4989010;28;20038;-76
2023/07/30 06:41:28;;;;;;;3.60;3.03;;;28.90;51.50;;;;;;4991214;28;20061;-74
2023/07/30 06:43:54;;;;;;;4.57;3.13;;;29.00;51.70;;;;;;4984506;28;20462;-75
2023/07/30 06:46:20;;;;;;;3.85;2.65;;;29.00;52.60;;;;;;4990352;28;20126;-77
2023/07/30 06:48:47;;;;;;;6.80;2.50;;;28.90;50.90;;;;;;4992240;28;20034;-75
2023/07/30 06:51:13;;;;;;;3.08;2.45;;;28.90;50.00;;;;;;4990010;28;20040;-76
2023/07/30 06:53:40;;;;;;;5.63;2.90;;;29.00;50.80;;;;;;5000259;28;20062;-77
2023/07/30 06:56:06;;;;;;;4.00;2.83;;;29.00;51.80;;;;;;4989917;28;20061;-74
2023/07/30 06:58:32;;;;;;;3.53;2.78;;;29.00;51.80;;;;;;4989415;28;20475;-73
2023/07/30 07:00:58;;;;;;;3.35;3.05;;;29.00;51.30;;;;;;4991587;28;20022;-74
2023/07/30 07:03:24;;;;;;;5.63;2.92;;;29.10;50.90;;;;;;4992219;28;20121;-73
2023/07/30 07:05:56;;;;;;;3.85;3.05;;;29.00;50.70;;;;;;5004459;28;20081;-73
2023/07/30 07:08:22;;;;;;;;;;;29.10;50.50;;;;;;4991138;28;20049;-76
2023/07/30 07:10:49;;;;;;;5.07;2.95;;;29.10;50.50;;;;;;5002255;28;19916;-75
2023/07/30 07:13:15;;;;;;;5.70;3.10;;;29.10;50.40;;;;;;4992547;28;20057;-76
2023/07/30 07:15:43;;;;;;;3.72;2.67;;;29.00;50.20;;;;;;5003505;28;20041;-75
2023/07/30 07:18:09;;;;;;;3.63;2.60;;;29.20;50.00;;;;;;4987725;28;20031;-72
2023/07/30 07:20:37;;;;;;;5.20;2.85;;;29.00;49.60;;;;;;4991154;28;20030;-72
2023/07/30 07:23:03;;;;;;;3.58;2.83;;;29.10;49.60;;;;;;4992130;28;20379;-70
2023/07/30 07:25:29;;;;;;;8.77;3.00;;;29.20;49.50;;;;;;4992105;28;20042;-69
2023/07/30 07:27:55;;;;;;;3.22;2.70;;;29.10;49.20;;;;;;4992023;28;20076;-69
2023/07/30 07:30:21;;;;;;;2.85;2.42;;;29.10;48.80;;;;;;4992135;28;20029;-70
2023/07/30 07:32:50;;;;;;;4.50;2.33;;;29.00;48.30;;;;;;4992142;28;20141;-68
2023/07/30 07:35:18;;;;;;;3.90;2.53;;;29.10;47.90;;;;;;4991958;28;20042;-67
2023/07/30 07:37:44;;;;;;;3.75;3.10;;;29.10;47.50;;;;;;4991692;28;20061;-67
2023/07/30 07:40:11;;;;;;;3.65;2.00;;;29.10;47.10;;;;;;4991774;28;20100;-69
2023/07/30 07:42:38;;;;;;;3.63;2.53;;;29.20;46.50;;;;;;4994459;28;20080;-70
2023/07/30 07:45:06;;;;;;;3.60;2.78;;;29.00;46.00;;;;;;4993311;28;20030;-70
2023/07/30 07:47:32;;;;;;;2.92;2.60;;;28.90;45.20;;;;;;5004080;28;20046;-69
2023/07/30 07:49:58;;;;;;;4.38;2.28;;;29.00;45.60;;;;;;4988958;28;20053;-69
2023/07/30 07:52:25;;;;;;;2.90;2.20;;;29.00;45.30;;;;;;4991823;28;20037;-70
2023/07/30 07:54:51;;;;;;;2.70;2.22;;;29.00;45.20;;;;;;4991733;28;20048;-68
2023/07/30 07:57:17;;;;;;;2.67;2.33;;;28.90;44.40;;;;;;4991171;28;20035;-69
2023/07/30 07:59:44;;;;;;;2.83;2.58;;;28.90;44.30;;;;;;4991697;28;20177;-69
2023/07/30 08:02:12;;;;;;;5.18;2.47;;;29.00;44.60;;;;;;4991814;28;20046;-69
2023/07/30 08:04:38;;;;;;;2.40;2.20;;;29.10;44.50;;;;;;4993095;28;20111;-69
2023/07/30 08:07:04;;;;;;;2.22;2.08;;;28.90;43.60;;;;;;4993096;28;20041;-70
2023/07/30 08:09:31;;;;;;;2.17;1.88;;;28.90;43.30;;;;;;5013266;28;20038;-71
2023/07/30 08:11:58;;;;;;;1.88;1.77;;;28.80;43.20;;;;;;4994194;28;20121;-71
2023/07/30 08:14:24;;;;;;;2.40;2.15;;;28.80;42.80;;;;;;4987135;28;20031;-68
2023/07/30 08:16:51;;;;;;;3.10;2.70;;;28.90;42.70;;;;;;4992408;28;20536;-70
2023/07/30 08:19:17;;;;;;;4.57;2.15;;;28.70;42.90;;;;;;4994270;28;20485;-69
2023/07/30 08:21:43;;;;;;;2.10;1.75;;;28.80;43.20;;;;;;4995195;28;20045;-69
2023/07/30 08:24:09;;;;;;;2.38;2.17;;;28.80;43.80;;;;;;5009175;28;20052;-68
2023/07/30 08:26:35;;;;;;;3.42;2.25;;;28.80;44.30;;;;;;4993767;28;20599;-70
2023/07/30 08:29:01;;;;;;;4.18;2.80;;;28.80;44.80;;;;;;4994770;28;20478;-70
2023/07/30 08:31:27;;;;;;;2.10;1.90;;;28.80;45.20;;;;;;4994146;28;20500;-69
2023/07/30 08:33:53;;;;;;;2.53;2.33;;;28.80;45.50;;;;;;4994115;28;20047;-70
2023/07/30 08:36:19;;;;;;;4.32;2.40;;;28.70;45.70;;;;;;4995079;28;20037;-69
2023/07/30 08:38:46;;;;;;;2.45;2.25;;;28.90;45.90;;;;;;5042298;28;20386;-71
2023/07/30 08:41:12;;;;;;;4.15;2.22;;;28.70;46.00;;;;;;4993994;28;20038;-69
2023/07/30 08:43:38;;;;;;;2.28;2.08;;;28.80;46.10;;;;;;4977133;28;20033;-69
2023/07/30 08:46:05;;;;;;;3.80;2.13;;;28.80;46.20;;;;;;5012069;28;20105;-71
2023/07/30 08:48:31;;;;;;;2.40;2.20;;;28.80;46.30;;;;;;4999684;28;20043;-69
2023/07/30 08:50:58;;;;;;;3.42;2.80;;;28.70;46.40;;;;;;5031247;28;20045;-70
2023/07/30 08:53:26;;;;;;;3.30;2.28;;;28.70;46.40;;;;;;5031652;28;20084;-68
2023/07/30 08:55:54;;;;;;;3.10;2.22;;;28.70;46.60;;;;;;5030406;28;20069;-69
2023/07/30 08:58:26;;;;;;;2.05;1.80;;;28.60;46.90;;;;;;5029402;28;20091;-68
2023/07/30 09:00:55;;;;;;;5.38;2.15;;;28.60;47.40;;;;;;5031571;28;20084;-68
2023/07/30 09:03:26;;;;;;;2.28;2.08;;;28.50;47.80;;;;;;5030477;28;20036;-73
2023/07/30 09:05:52;;;;;;;2.50;2.25;;;28.60;49.20;;;;;;5027965;28;20049;-74
2023/07/30 09:08:18;;;;;;;2.50;2.25;;;28.60;49.20;;;;;;5031230;28;20038;-76
2023/07/30 09:10:44;;;;;;;3.28;1.77;;;28.80;49.20;;;;;;5030087;28;20025;-76
2023/07/30 09:13:10;;;;;;;2.80;2.60;;;28.90;49.10;;;;;;5031337;28;20517;-76
2023/07/30 09:15:38;;;;;;;2.25;2.10;;;29.00;50.00;;;;;;5029950;28;20116;-84
2023/07/30 09:18:05;;;;;;;3.85;2.42;;;29.00;49.00;;;;;;4996573;28;20051;-81
2023/07/30 09:20:38;;;;;;;2.80;2.42;;;29.00;48.50;;;;;;4995198;28;20025;-71
2023/07/30 09:23:09;;;;;;;4.00;2.88;;;28.90;47.80;;;;;;4991499;28;20034;-75
2023/07/30 09:25:38;;;;;;;2.60;2.22;;;28.90;47.70;;;;;;4995014;28;20030;-74
2023/07/30 09:28:06;;;;;;;3.08;2.50;;;29.00;48.10;;;;;;4983619;28;20117;-70
2023/07/30 09:30:33;;;;;;;2.97;1.98;;;29.00;48.00;;;;;;4992355;28;20038;-70
2023/07/30 09:32:59;;;;;;;2.20;2.00;;;28.80;47.40;;;;;;5007018;28;20054;-69
2023/07/30 09:35:26;;;;;;;3.17;2.30;;;29.00;48.10;;;;;;4994049;28;20149;-70
2023/07/30 09:38:03;;;;;;;2.17;1.90;;;29.00;48.30;;;;;;4990086;28;20459;-70
2023/07/30 09:40:34;;;;;;;2.72;2.25;;;28.80;47.80;;;;;;4987258;28;20043;-72
2023/07/30 09:43:09;;;;;;;2.20;1.90;;;29.00;48.30;;;;;;4986731;28;20042;-72
2023/07/30 09:45:36;;;;;;;5.10;2.20;;;28.90;47.80;;;;;;4986601;28;20121;-71
2023/07/30 09:48:07;;;;;;;5.70;2.35;;;28.90;47.70;;;;;;4982539;28;20471;-71
2023/07/30 09:50:37;;;;;;;2.53;2.05;;;29.00;48.20;;;;;;4981142;28;20033;-69
2023/07/30 09:53:04;;;;;;;2.55;2.30;;;29.00;48.10;;;;;;4989897;28;20022;-69
2023/07/30 09:55:30;;;;;;;4.00;2.15;;;28.90;47.50;;;;;;4991465;28;20805;-68
2023/07/30 09:57:57;;;;;;;2.63;2.42;;;28.90;47.50;;;;;;4992832;28;20057;-69
2023/07/30 10:00:24;;;;;;;2.15;2.05;;;29.00;48.10;;;;;;5006480;28;20073;-69
2023/07/30 10:02:55;;;;;;;3.25;2.35;;;29.00;48.20;;;;;;4993395;28;20072;-72
2023/07/30 10:05:25;;;;;;;2.95;2.30;;;28.90;47.70;;;;;;4989961;28;20066;-72
2023/07/30 10:08:00;;;;;;;2.75;1.80;;;28.80;47.80;;;;;;4986828;28;20064;-73
2023/07/30 10:10:29;;;;;;;6.43;2.17;;;28.90;47.80;;;;;;4986776;28;20042;-67
2023/07/30 10:13:00;;;;;;;5.70;2.28;;;28.90;47.80;;;;;;4985970;28;20077;-73
2023/07/30 10:15:26;;;;;;;2.08;1.90;;;28.90;47.90;;;;;;4986654;28;20030;-77
2023/07/30 10:17:52;;;;;;;1.90;1.80;;;28.80;47.90;;;;;;4988894;28;20030;-72
2023/07/30 10:20:23;;;;;;;3.75;2.33;;;28.90;47.90;;;;;;4986527;28;20038;-73
2023/07/30 10:22:54;;;;;;;2.75;2.22;;;28.80;47.90;;;;;;4985947;28;20045;-74
2023/07/30 10:25:29;;;;;;;2.45;2.20;;;28.90;48.00;;;;;;4985005;28;20382;-78
2023/07/30 10:27:56;;;;;;;2.88;1.83;;;28.80;48.10;;;;;;4989800;28;20085;-74
2023/07/30 10:30:31;;;;;;;3.25;1.92;;;28.70;48.10;;;;;;4991235;28;20089;-73
2023/07/30 10:32:59;;;;;;;1.85;1.70;;;28.80;47.90;;;;;;4988604;28;20050;-74
2023/07/30 10:35:46;;;;;;;3.00;2.00;;;28.80;48.00;;;;;;4985328;28;20042;-74
2023/07/30 10:38:30;;;;;;;2.45;1.98;;;28.70;48.10;;;;;;4987101;28;20486;-73
2023/07/30 10:41:17;;;;;;;2.35;2.10;;;28.80;48.00;;;;;;4987251;28;20447;-70
2023/07/30 10:43:48;;;;;;;2.17;1.98;;;28.90;49.80;;;;;;4984709;28;20045;-73
2023/07/30 10:46:18;;;;;;;4.88;2.17;;;28.90;50.60;;;;;;4986071;28;20042;-73
2023/07/30 10:48:47;;;;;;;3.92;2.13;;;28.90;54.00;;;;;;4990609;28;20061;-73
2023/07/30 10:51:16;;;;;;;3.42;2.65;;;29.10;53.80;;;;;;4992826;28;20387;-69
2023/07/30 10:53:46;;;;;;;4.82;2.90;;;29.20;57.20;;;;;;5017672;28;20558;-65
2023/07/30 10:56:15;;;;;;;4.55;2.83;;;29.30;55.00;;;;;;4988562;28;20038;-71
2023/07/30 10:58:43;;;;;;;3.55;2.83;;;29.20;55.40;;;;;;4989340;28;20049;-68
2023/07/30 11:01:09;;;;;;;2.60;2.40;;;29.20;54.40;;;;;;4990748;28;20038;-69
2023/07/30 11:03:38;;;;;;;2.65;2.40;;;29.30;54.10;;;;;;4990635;28;20129;-69
2023/07/30 11:06:04;;;;;;;9.70;3.10;;;29.20;54.00;;;;;;4992302;28;20034;-70
2023/07/30 11:08:41;;;;;;;8.10;2.55;;;29.40;50.90;;;;;;4990117;28;20026;-69
2023/07/30 11:11:09;;;;;;;3.17;2.63;;;29.30;51.90;;;;;;4995365;28;20026;-69
2023/07/30 11:13:36;;;;;;;3.67;3.22;;;29.50;52.00;;;;;;5004833;28;20137;-71
2023/07/30 11:16:06;;;;;;;4.45;2.60;;;29.50;51.20;;;;;;4991364;28;20504;-72
2023/07/30 11:18:34;;;;;;;6.20;3.28;;;29.60;48.70;;;;;;4991215;28;20398;-72
2023/07/30 11:21:07;;;;;;;3.05;2.50;;;29.50;47.70;;;;;;4993370;28;20054;-69
2023/07/30 11:23:35;;;;;;;3.35;2.45;;;29.40;48.20;;;;;;4984610;28;20513;-69
2023/07/30 11:26:03;;;;;;;2.65;2.30;;;29.50;48.80;;;;;;5001840;28;20148;-72
2023/07/30 11:28:39;;;;;;;4.88;2.75;;;29.30;48.80;;;;;;4993007;28;20112;-71
2023/07/30 11:31:21;;;;;;;8.43;3.05;;;29.50;50.30;;;;;;4987038;28;20046;-72
2023/07/30 11:33:49;;;;;;;4.50;3.20;;;29.50;50.10;;;;;;4988044;28;20062;-69
2023/07/30 11:36:21;;;;;;;3.63;2.75;;;29.40;50.20;;;;;;4986315;28;20050;-72
2023/07/30 11:38:48;;;;;;;2.58;2.28;;;29.50;49.30;;;;;;4985511;28;20625;-72
2023/07/30 11:41:15;;;;;;;4.38;2.90;;;29.70;49.40;;;;;;4984978;28;20125;-70
2023/07/30 11:43:44;;;;;;;3.72;2.50;;;29.60;48.60;;;;;;4971674;28;20427;-72
2023/07/30 11:46:15;;;;;;;3.30;2.75;;;29.50;45.30;;;;;;4985659;28;20147;-70
2023/07/30 11:48:44;;;;;;;9.27;2.90;;;29.60;44.00;;;;;;4984773;28;20038;-70
2023/07/30 11:51:28;;;;;;;3.67;2.35;;;29.70;43.40;;;;;;4982420;28;20039;-70
2023/07/30 11:53:58;;;;;;;4.82;2.88;;;29.70;43.80;;;;;;4987094;28;20029;-70
2023/07/30 11:56:26;;;;;;;5.80;3.90;;;29.60;43.80;;;;;;4986702;28;20058;-70
2023/07/30 11:58:58;;;;;;;3.90;2.78;;;29.60;46.20;;;;;;4988138;28;20038;-70
2023/07/30 12:01:29;;;;;;;4.03;2.88;;;29.70;44.60;;;;;;4987423;28;20033;-71
2023/07/30 12:04:00;;;;;;;2.90;2.70;;;29.60;44.30;;;;;;4987356;28;20033;-71
2023/07/30 12:06:59;;;;;;;5.22;3.00;;;29.60;44.20;;;;;;4985823;28;20032;-70
2023/07/30 12:09:25;;;;;;;3.92;2.38;;;29.60;44.70;;;;;;4965531;28;20045;-70
2023/07/30 12:12:00;;;;;;;2.60;2.40;;;29.70;44.00;;;;;;4967035;28;20046;-69
2023/07/30 12:14:43;;;;;;;2.42;2.22;;;29.50;44.50;;;;;;4967681;28;20042;-70
2023/07/30 12:17:10;;;;;;;2.53;1.98;;;29.40;44.40;;;;;;4966919;28;20039;-69
2023/07/30 12:19:36;;;;;;;2.10;1.80;;;29.40;43.50;;;;;;4967387;28;20115;-69
2023/07/30 12:22:02;;;;;;;2.15;1.92;;;29.40;43.20;;;;;;4963083;28;20041;-69
2023/07/30 12:24:28;;;;;;;3.03;1.88;;;29.40;43.00;;;;;;4967893;28;20039;-69
2023/07/30 12:26:55;;;;;;;3.63;2.10;;;29.40;42.90;;;;;;4967305;28;20118;-69
2023/07/30 12:29:21;;;;;;;2.38;2.15;;;29.30;42.80;;;;;;4966384;28;20114;-72
2023/07/30 12:31:47;;;;;;;2.03;1.80;;;29.40;42.80;;;;;;4949395;28;20039;-71
2023/07/30 12:34:13;;;;;;;2.50;1.98;;;29.30;42.30;;;;;;4968049;28;20039;-70
2023/07/30 12:36:39;;;;;;;2.47;2.20;;;29.20;42.50;;;;;;4967349;28;20037;-71
2023/07/30 12:39:05;;;;;;;1.70;1.60;;;29.20;42.30;;;;;;4965695;28;20059;-72
2023/07/30 12:41:32;;;;;;;2.42;1.70;;;29.10;42.30;;;;;;4967342;28;20402;-72
2023/07/30 12:43:58;;;;;;;4.28;2.53;;;29.20;42.10;;;;;;4965633;28;20034;-73
2023/07/30 12:46:24;;;;;;;2.50;1.77;;;29.20;42.10;;;;;;4988962;28;20045;-74
2023/07/30 12:48:51;;;;;;;1.90;1.77;;;29.10;41.90;;;;;;4988660;28;20038;-73
2023/07/30 12:51:17;;;;;;;2.30;2.08;;;29.00;41.80;;;;;;4989132;28;20030;-71